Time;durP1;ratioP1;P1;durP2;ratioP2;P2;SDS_P1;SDS_P2;PMS_P1;PMS_P2;Temp;Humidity;BMP_temperature;BMP_pressure;BME280_temperature;BME280_humidity;BME280_pressure;Samples;Min_cycle;Max_cycle;Signal;HPM_P1;HPM_P2
2023/03/28 00:01:17;;;;;;;;;;;18.50;47.10;;;;;;5011556;28;19921;-74
2023/03/28 00:03:43;;;;;;;;;;;18.50;47.00;;;;;;5001519;28;20346;-74
2023/03/28 00:06:09;;;;;;;;;;;18.50;46.80;;;;;;5006352;28;20295;-73
2023/03/28 00:08:38;;;;;;;;;;;18.40;46.90;;;;;;4996948;28;21957;-74
2023/03/28 00:11:08;;;;;;;;;;;18.40;47.40;;;;;;4994173;28;19927;-73
2023/03/28 00:13:34;;;;;;;;;;;18.40;47.00;;;;;;5013026;28;20301;-73
2023/03/28 00:16:04;;;;;;;;;;;18.40;47.40;;;;;;5010531;28;19924;-73
2023/03/28 00:18:30;;;;;;;;;;;18.40;47.00;;;;;;4993945;28;19929;-74
2023/03/28 00:20:55;;;;;;;;;;;18.40;47.10;;;;;;5014050;28;19914;-73
2023/03/28 00:23:20;;;;;;;;;;;18.40;47.30;;;;;;5006892;28;20014;-73
2023/03/28 00:25:47;;;;;;;;;;;18.30;46.90;;;;;;5011296;28;19917;-74
2023/03/28 00:28:13;;;;;;;;;;;18.30;47.20;;;;;;5008776;28;19927;-74
2023/03/28 00:30:38;;;;;;;;;;;18.30;47.20;;;;;;5008443;28;19918;-73
2023/03/28 00:33:04;;;;;;;;;;;18.30;47.30;;;;;;5010667;28;19920;-73
2023/03/28 00:35:31;;;;;;;;;;;18.30;47.70;;;;;;5020971;28;19958;-73
2023/03/28 00:37:57;;;;;;;;;;;18.30;47.60;;;;;;5026519;28;19920;-74
2023/03/28 00:40:26;;;;;;;;;;;18.20;47.30;;;;;;5011306;28;20367;-74
2023/03/28 00:42:52;;;;;;;;;;;18.20;47.20;;;;;;5015158;28;19959;-73
2023/03/28 00:45:20;;;;;;;;;;;18.20;47.40;;;;;;5013510;28;20015;-74
2023/03/28 00:47:51;;;;;;;;;;;18.20;47.50;;;;;;5016678;28;19913;-73
2023/03/28 00:50:19;;;;;;;;;;;18.10;47.10;;;;;;5018516;28;19913;-73
2023/03/28 00:52:48;;;;;;;;;;;18.10;47.50;;;;;;5026668;28;19956;-73
2023/03/28 00:55:18;;;;;;;;;;;18.10;47.20;;;;;;5012888;28;20008;-73
2023/03/28 00:57:44;;;;;;;;;;;18.10;47.40;;;;;;4999439;28;19992;-73
2023/03/28 01:00:12;;;;;;;;;;;18.10;47.40;;;;;;5001486;28;20635;-74
2023/03/28 01:02:44;;;;;;;;;;;18.10;47.60;;;;;;5008994;27;20474;-74
2023/03/28 01:05:09;;;;;;;;;;;18.10;47.40;;;;;;5009456;28;19925;-73
2023/03/28 01:07:36;;;;;;;;;;;18.00;47.40;;;;;;5004874;28;19920;-74
2023/03/28 01:10:02;;;;;;;;;;;18.00;47.40;;;;;;5000155;28;19913;-74
2023/03/28 01:12:28;;;;;;;;;;;18.00;47.60;;;;;;5004935;28;19918;-74
2023/03/28 01:14:53;;;;;;;;;;;18.10;47.60;;;;;;5001793;28;22596;-74
2023/03/28 01:17:20;;;;;;;;;;;18.10;47.20;;;;;;5006315;28;19925;-74
2023/03/28 01:19:57;;;;;;;;;;;18.20;46.90;;;;;;4998680;28;19960;-73
2023/03/28 01:22:41;;;;;;;;;;;18.30;47.80;;;;;;5015637;28;20016;-74
2023/03/28 01:25:12;;;;;;;;;;;18.40;47.30;;;;;;5007346;28;19975;-73
2023/03/28 01:27:41;;;;;;;;;;;18.60;47.40;;;;;;5016963;28;19914;-74
2023/03/28 01:30:06;;;;;;;;;;;18.80;46.70;;;;;;5005749;28;20730;-74
2023/03/28 01:32:38;;;;;;;;;;;19.00;46.20;;;;;;5025311;27;19932;-74
2023/03/28 01:35:18;;;;;;;;;;;19.20;46.10;;;;;;5014395;28;20004;-74
2023/03/28 01:37:46;;;;;;;;;;;19.30;45.50;;;;;;5037383;28;19917;-74
2023/03/28 01:40:26;;;;;;;;;;;19.40;45.60;;;;;;4995903;28;19956;-74
2023/03/28 01:42:52;;;;;;;;;;;19.50;45.70;;;;;;5011492;28;20351;-74
2023/03/28 01:45:21;;;;;;;;;;;19.60;45.70;;;;;;5010164;28;19957;-74
2023/03/28 01:48:04;;;;;;;;;;;19.60;45.60;;;;;;5010467;28;19920;-74
2023/03/28 01:50:53;;;;;;;;;;;19.60;45.50;;;;;;5025441;28;19917;-73
2023/03/28 01:53:25;;;;;;;;;;;19.50;45.40;;;;;;5035342;28;20418;-74
2023/03/28 01:56:09;;;;;;;;;;;19.40;45.30;;;;;;5020006;28;20279;-74
2023/03/28 01:58:39;;;;;;;;;;;19.40;44.70;;;;;;5015557;28;20335;-74
2023/03/28 02:01:06;;;;;;;;;;;19.50;44.90;;;;;;5015099;28;20268;-74
2023/03/28 02:03:33;;;;;;;;;;;19.40;45.20;;;;;;5008716;28;20324;-74
2023/03/28 02:05:58;;;;;;;;;;;19.40;44.80;;;;;;5025510;28;19988;-74
2023/03/28 02:08:25;;;;;;;;;;;19.40;44.80;;;;;;5010415;28;20000;-74
2023/03/28 02:10:50;;;;;;;;;;;19.40;44.60;;;;;;4999796;28;19925;-74
2023/03/28 02:13:24;;;;;;;;;;;19.50;44.60;;;;;;5000212;28;19921;-74
2023/03/28 02:15:51;;;;;;;;;;;19.40;44.20;;;;;;5005356;28;19995;-74
2023/03/28 02:18:19;;;;;;;;;;;19.50;44.30;;;;;;4999224;28;20678;-74
2023/03/28 02:20:45;;;;;;;;;;;19.50;44.00;;;;;;5006611;28;19917;-74
2023/03/28 02:23:12;;;;;;;;;;;19.50;44.00;;;;;;4993429;28;20312;-74
2023/03/28 02:25:38;;;;;;;;;;;19.60;44.10;;;;;;5005823;28;19913;-74
2023/03/28 02:28:04;;;;;;;;;;;19.60;44.10;;;;;;5005455;28;19918;-74
2023/03/28 02:30:30;;;;;;;;;;;19.50;44.10;;;;;;5004417;28;19917;-74
2023/03/28 02:32:59;;;;;;;;;;;19.50;44.00;;;;;;5005893;28;19921;-74
2023/03/28 02:35:26;;;;;;;;;;;19.50;44.10;;;;;;5012694;28;19921;-74
2023/03/28 02:38:07;;;;;;;;;;;19.50;44.50;;;;;;5003036;28;20414;-74
2023/03/28 02:40:35;;;;;;;;;;;19.50;44.50;;;;;;5007764;28;20642;-74
2023/03/28 02:43:01;;;;;;;;;;;19.40;44.50;;;;;;5012595;28;19938;-74
2023/03/28 02:45:39;;;;;;;;;;;19.40;44.40;;;;;;5010201;28;19921;-74
2023/03/28 02:48:11;;;;;;;;;;;19.50;44.50;;;;;;4994602;28;20306;-74
2023/03/28 02:50:47;;;;;;;;;;;19.50;44.20;;;;;;4993369;28;19913;-74
2023/03/28 02:53:13;;;;;;;;;;;19.50;44.00;;;;;;5007380;28;19920;-74
2023/03/28 02:55:45;;;;;;;;;;;19.60;44.10;;;;;;5003895;28;21995;-74
2023/03/28 02:58:21;;;;;;;;;;;19.50;44.00;;;;;;5011115;28;19914;-73
2023/03/28 03:00:47;;;;;;;;;;;19.50;44.10;;;;;;4996510;28;20371;-73
2023/03/28 03:03:12;;;;;;;;;;;19.50;44.00;;;;;;5007216;28;19932;-74
2023/03/28 03:05:38;;;;;;;;;;;19.50;44.80;;;;;;4991621;28;19922;-74
2023/03/28 03:08:03;;;;;;;;;;;19.50;44.00;;;;;;5007571;28;19925;-74
2023/03/28 03:10:29;;;;;;;;;;;19.50;44.00;;;;;;5008642;28;19921;-74
2023/03/28 03:12:54;;;;;;;;;;;19.50;44.00;;;;;;5009519;28;19921;-74
2023/03/28 03:15:20;;;;;;;;;;;19.50;43.90;;;;;;4991290;28;20674;-74
2023/03/28 03:17:45;;;;;;;;;;;19.60;44.10;;;;;;5011931;28;19913;-74
2023/03/28 03:20:11;;;;;;;;;;;19.50;44.00;;;;;;4996899;28;19928;-74
2023/03/28 03:22:36;;;;;;;;;;;19.50;43.90;;;;;;5007988;28;19978;-74
2023/03/28 03:25:05;;;;;;;;;;;19.50;43.70;;;;;;5005898;28;20279;-74
2023/03/28 03:27:31;;;;;;;;;;;19.50;43.50;;;;;;5002538;28;19921;-74
2023/03/28 03:29:57;;;;;;;;;;;19.50;43.50;;;;;;5002937;28;19914;-74
2023/03/28 03:32:22;;;;;;;;;;;19.50;43.80;;;;;;5019385;28;19913;-74
2023/03/28 03:34:47;;;;;;;;;;;19.50;43.80;;;;;;4999833;28;20375;-74
2023/03/28 03:37:13;;;;;;;;;;;19.50;43.80;;;;;;5014075;28;19910;-74
2023/03/28 03:39:38;;;;;;;;;;;19.40;43.90;;;;;;5023274;28;19918;-74
2023/03/28 03:42:04;;;;;;;;;;;19.40;43.60;;;;;;5004798;28;19916;-74
2023/03/28 03:44:30;;;;;;;;;;;19.50;43.70;;;;;;5015889;28;19925;-74
2023/03/28 03:46:56;;;;;;;;;;;19.40;43.90;;;;;;5011995;28;19909;-74
2023/03/28 03:49:21;;;;;;;;;;;19.40;43.70;;;;;;5023391;28;19914;-74
2023/03/28 03:51:47;;;;;;;;;;;19.40;43.70;;;;;;4997974;28;19929;-74
2023/03/28 03:54:12;;;;;;;;;;;19.50;43.60;;;;;;5026783;28;20302;-74
2023/03/28 03:56:38;;;;;;;;;;;19.50;43.60;;;;;;5026397;28;20008;-74
2023/03/28 03:59:03;;;;;;;;;;;19.60;43.80;;;;;;5024473;28;19928;-74
2023/03/28 04:01:29;;;;;;;;;;;19.50;43.50;;;;;;5001512;28;20016;-74
2023/03/28 04:03:55;;;;;;;;;;;19.50;43.60;;;;;;5009646;28;19936;-74
2023/03/28 04:06:20;;;;;;;;;;;19.50;43.80;;;;;;5003976;28;19921;-74
2023/03/28 04:08:46;;;;;;;;;;;19.50;43.90;;;;;;5005696;28;19914;-74
2023/03/28 04:11:11;;;;;;;;;;;19.50;43.70;;;;;;4996305;28;19917;-74
2023/03/28 04:13:37;;;;;;;;;;;19.50;43.60;;;;;;5008306;28;20004;-74
2023/03/28 04:16:02;;;;;;;;;;;19.40;43.50;;;;;;5009000;28;19924;-74
2023/03/28 04:18:28;;;;;;;;;;;19.40;43.40;;;;;;5003657;28;19914;-74
2023/03/28 04:20:55;;;;;;;;;;;19.40;43.50;;;;;;5013202;28;19921;-74
2023/03/28 04:23:24;;;;;;;;;;;19.50;43.50;;;;;;4988919;28;19973;-74
2023/03/28 04:25:56;;;;;;;;;;;19.50;43.20;;;;;;5013961;28;19917;-74
2023/03/28 04:28:24;;;;;;;;;;;19.70;43.50;;;;;;5010980;28;19920;-74
2023/03/28 04:30:53;;;;;;;;;;;20.50;42.50;;;;;;5016264;28;19929;-73
2023/03/28 04:33:23;;;;;;;;;;;21.00;41.60;;;;;;5013815;28;19918;-74
2023/03/28 04:35:59;;;;;;;;;;;21.40;40.90;;;;;;5032456;28;19940;-73
2023/03/28 04:38:27;;;;;;;;;;;21.70;40.30;;;;;;5006181;28;19921;-74
2023/03/28 04:40:56;;;;;;;;;;;22.10;39.70;;;;;;5006198;28;19913;-74
2023/03/28 04:43:28;;;;;;;;;;;22.50;39.20;;;;;;5001748;28;19966;-74
2023/03/28 04:45:53;;;;;;;;;;;22.80;38.70;;;;;;5007848;28;19917;-74
2023/03/28 04:48:19;;;;;;;;;;;23.10;38.20;;;;;;5019726;28;19966;-74
2023/03/28 04:50:44;;;;;;;;;;;23.30;37.80;;;;;;5005779;28;20406;-73
2023/03/28 04:53:11;;;;;;;;;;;23.50;37.60;;;;;;5017777;28;20332;-73
2023/03/28 04:55:37;;;;;;;;;;;23.60;37.40;;;;;;5009320;28;19921;-74
2023/03/28 04:58:03;;;;;;;;;;;23.60;37.20;;;;;;5005240;28;19919;-74
2023/03/28 05:00:28;;;;;;;;;;;23.70;37.30;;;;;;5014180;28;19917;-74
2023/03/28 05:02:54;;;;;;;;;;;23.70;37.40;;;;;;5006640;27;20008;-74
2023/03/28 05:05:20;;;;;;;;;;;23.70;37.40;;;;;;5003153;28;19922;-74
2023/03/28 05:07:45;;;;;;;;;;;23.60;37.40;;;;;;5004625;28;19951;-74
2023/03/28 05:10:11;;;;;;;;;;;23.60;37.50;;;;;;4994435;28;19952;-74
2023/03/28 05:12:36;;;;;;;;;;;23.60;37.50;;;;;;5010511;28;19994;-74
2023/03/28 05:15:03;;;;;;;;;;;23.70;37.60;;;;;;5012340;28;19956;-74
2023/03/28 05:17:28;;;;;;;;;;;23.60;37.40;;;;;;5014989;28;20004;-74
2023/03/28 05:19:54;;;;;;;;;;;23.60;37.50;;;;;;5041265;28;20008;-74
2023/03/28 05:22:19;;;;;;;;;;;23.60;37.40;;;;;;5000170;28;20307;-74
2023/03/28 05:24:45;;;;;;;;;;;23.70;37.50;;;;;;5011305;28;19921;-74
2023/03/28 05:27:10;;;;;;;;;;;23.60;37.40;;;;;;5020613;28;19913;-75
2023/03/28 05:29:35;;;;;;;;;;;23.50;37.50;;;;;;5008672;28;19914;-75
2023/03/28 05:32:01;;;;;;;;;;;23.50;37.50;;;;;;5003166;28;19920;-75
2023/03/28 05:34:28;;;;;;;;;;;23.50;37.60;;;;;;5023968;28;20300;-75
2023/03/28 05:36:55;;;;;;;;;;;23.50;37.60;;;;;;5033343;28;19943;-75
2023/03/28 05:39:22;;;;;;;;;;;23.40;37.60;;;;;;5021867;28;19925;-75
2023/03/28 05:41:48;;;;;;;;;;;23.50;37.60;;;;;;5017613;28;19910;-75
2023/03/28 05:44:13;;;;;;;;;;;23.50;37.60;;;;;;5009819;28;20336;-75
2023/03/28 05:46:38;;;;;;;;;;;23.50;37.60;;;;;;5028644;28;20027;-74
2023/03/28 05:49:04;;;;;;;;;;;23.50;37.50;;;;;;5009042;28;19914;-75
2023/03/28 05:51:29;;;;;;;;;;;23.50;37.40;;;;;;5025395;28;20012;-75
2023/03/28 05:53:55;;;;;;;;;;;23.60;37.30;;;;;;5016396;28;19966;-75
2023/03/28 05:56:20;;;;;;;;;;;23.70;37.30;;;;;;5007538;28;19980;-75
2023/03/28 05:58:47;;;;;;;;;;;23.80;37.20;;;;;;5010073;28;19937;-75
2023/03/28 06:01:17;;;;;;;;;;;23.80;37.70;;;;;;5006250;28;20496;-75
2023/03/28 06:03:45;;;;;;;;;;;23.80;37.10;;;;;;5011117;27;19939;-75
2023/03/28 06:06:11;;;;;;;;;;;23.70;37.30;;;;;;5010225;28;20541;-75
2023/03/28 06:08:36;;;;;;;;;;;23.80;37.20;;;;;;5027661;28;19910;-75
2023/03/28 06:11:02;;;;;;;;;;;23.80;37.40;;;;;;5000537;28;19916;-75
2023/03/28 06:13:27;;;;;;;;;;;23.70;37.30;;;;;;5012377;28;19913;-75
2023/03/28 06:15:53;;;;;;;;;;;23.60;37.30;;;;;;5009473;28;20294;-75
2023/03/28 06:18:19;;;;;;;;;;;23.70;37.30;;;;;;5008073;28;19921;-75
2023/03/28 06:20:44;;;;;;;;;;;23.60;37.40;;;;;;5007331;28;19914;-75
2023/03/28 06:23:10;;;;;;;;;;;23.60;37.80;;;;;;5012240;28;19935;-75
2023/03/28 06:25:35;;;;;;;;;;;23.50;37.50;;;;;;5008618;28;19930;-75
2023/03/28 06:28:00;;;;;;;;;;;23.60;37.60;;;;;;5012593;28;19928;-75
2023/03/28 06:30:26;;;;;;;;;;;23.50;37.50;;;;;;5017492;28;19928;-75
2023/03/28 06:32:51;;;;;;;;;;;23.50;37.50;;;;;;5016326;28;20331;-75
2023/03/28 06:35:17;;;;;;;;;;;23.50;37.70;;;;;;5004586;28;19920;-75
2023/03/28 06:37:42;;;;;;;;;;;23.40;37.70;;;;;;5005000;28;19914;-75
2023/03/28 06:40:08;;;;;;;;;;;23.40;37.80;;;;;;5010353;28;19966;-76
2023/03/28 06:42:33;;;;;;;;;;;23.50;37.70;;;;;;5010896;28;19914;-76
2023/03/28 06:44:59;;;;;;;;;;;23.60;37.70;;;;;;5002599;28;19956;-77
2023/03/28 06:47:24;;;;;;;;;;;23.60;37.90;;;;;;5011714;28;20008;-76
2023/03/28 06:49:50;;;;;;;;;;;23.60;37.80;;;;;;5006405;28;20401;-76
2023/03/28 06:52:16;;;;;;;;;;;23.60;37.80;;;;;;5005575;28;19917;-76
2023/03/28 06:54:41;;;;;;;;;;;23.60;37.60;;;;;;5014642;28;19996;-76
2023/03/28 06:57:07;;;;;;;;;;;23.70;37.60;;;;;;5019700;28;20004;-76
2023/03/28 06:59:32;;;;;;;;;;;23.80;37.50;;;;;;5008822;28;20022;-76
2023/03/28 07:01:57;;;;;;;;;;;23.90;37.40;;;;;;4995480;28;19925;-76
2023/03/28 07:04:23;;;;;;;;;;;23.90;37.30;;;;;;5000907;28;19929;-76
2023/03/28 07:06:49;;;;;;;;;;;24.00;38.00;;;;;;5009039;28;19922;-76
2023/03/28 07:09:14;;;;;;;;;;;23.90;37.40;;;;;;5008384;28;20417;-76
2023/03/28 07:11:40;;;;;;;;;;;23.90;37.40;;;;;;5014386;28;19918;-76
2023/03/28 07:14:05;;;;;;;;;;;23.90;37.60;;;;;;5012252;28;20372;-76
2023/03/28 07:16:31;;;;;;;;;;;23.80;37.70;;;;;;5009950;27;19914;-76
2023/03/28 07:18:56;;;;;;;;;;;23.80;38.00;;;;;;4996902;28;20850;-76
2023/03/28 07:21:22;;;;;;;;;;;23.80;38.30;;;;;;4998258;28;19932;-76
2023/03/28 07:23:47;;;;;;;;;;;23.70;38.40;;;;;;5021297;27;20348;-76
2023/03/28 07:26:13;;;;;;;;;;;23.80;38.60;;;;;;5016737;27;19964;-77
2023/03/28 07:28:38;;;;;;;;;;;23.70;38.70;;;;;;5007647;28;19957;-76
2023/03/28 07:34:07;;;;;;;;;;;23.70;39.10;;;;;;5021625;28;19920;-76
2023/03/28 07:36:32;;;;;;;;;;;23.70;39.10;;;;;;5005676;28;19917;-75
2023/03/28 07:38:58;;;;;;;;;;;23.70;39.20;;;;;;5018388;28;19968;-75
2023/03/28 07:41:23;;;;;;;;;;;23.80;38.90;;;;;;5027422;27;19915;-76
2023/03/28 07:43:49;;;;;;;;;;;23.90;38.90;;;;;;5015774;28;20397;-76
2023/03/28 07:46:14;;;;;;;;;;;23.90;38.80;;;;;;5000786;28;19917;-76
2023/03/28 07:48:40;;;;;;;;;;;23.90;38.70;;;;;;5023431;28;19924;-76
2023/03/28 07:51:06;;;;;;;;;;;24.00;38.50;;;;;;5012414;28;19914;-76
2023/03/28 07:53:32;;;;;;;;;;;24.10;38.50;;;;;;5017910;28;19935;-76
2023/03/28 07:55:57;;;;;;;;;;;24.10;38.40;;;;;;4999898;28;19963;-76
2023/03/28 07:58:23;;;;;;;;;;;24.10;38.50;;;;;;4997869;28;19917;-76
2023/03/28 08:00:48;;;;;;;;;;;24.10;38.40;;;;;;5015488;28;19953;-76
2023/03/28 08:03:14;;;;;;;;;;;24.10;38.60;;;;;;5018924;27;19917;-76
2023/03/28 08:05:40;;;;;;;;;;;24.10;38.60;;;;;;5028233;28;20252;-76
2023/03/28 08:08:06;;;;;;;;;;;24.10;38.70;;;;;;5017790;28;19923;-76
2023/03/28 08:10:31;;;;;;;;;;;24.10;38.80;;;;;;5030946;28;19917;-76
2023/03/28 08:12:57;;;;;;;;;;;24.00;39.00;;;;;;5018152;28;19914;-76
2023/03/28 08:15:22;;;;;;;;;;;23.90;39.10;;;;;;5039215;28;19917;-76
2023/03/28 08:17:48;;;;;;;;;;;23.90;39.10;;;;;;5006715;28;19921;-76
2023/03/28 08:20:13;;;;;;;;;;;23.90;39.00;;;;;;5024795;28;19909;-75
2023/03/28 08:22:39;;;;;;;;;;;23.90;39.10;;;;;;5030270;28;20052;-75
2023/03/28 08:25:05;;;;;;;;;;;23.80;39.10;;;;;;5015376;28;20302;-75
2023/03/28 08:27:30;;;;;;;;;;;23.90;39.20;;;;;;5011796;28;20287;-75
2023/03/28 08:29:56;;;;;;;;;;;24.00;39.10;;;;;;5019687;28;19913;-75
2023/03/28 08:32:22;;;;;;;;;;;24.10;38.90;;;;;;5013325;28;19936;-75
2023/03/28 08:34:47;;;;;;;;;;;24.20;38.90;;;;;;5016032;28;19975;-74
2023/03/28 08:37:13;;;;;;;;;;;24.30;39.00;;;;;;5003649;28;19913;-75
2023/03/28 08:39:41;;;;;;;;;;;24.40;38.90;;;;;;5016235;28;19952;-75
2023/03/28 08:42:25;;;;;;;;;;;24.40;38.90;;;;;;5005754;28;19920;-75
2023/03/28 08:45:01;;;;;;;;;;;24.40;39.00;;;;;;5022208;28;19978;-74
2023/03/28 08:47:30;;;;;;;;;;;24.30;39.10;;;;;;5024969;28;20002;-75
2023/03/28 08:49:58;;;;;;;;;;;24.30;39.30;;;;;;5026313;28;19959;-75
2023/03/28 08:52:24;;;;;;;;;;;24.10;39.30;;;;;;5018738;28;19938;-75
2023/03/28 08:54:51;;;;;;;;;;;24.10;39.50;;;;;;5002474;28;19921;-75
2023/03/28 08:57:22;;;;;;;;;;;24.00;39.60;;;;;;5013987;28;19909;-75
2023/03/28 08:59:51;;;;;;;;;;;24.00;39.70;;;;;;5027261;28;19920;-75
2023/03/28 09:02:21;;;;;;;;;;;23.90;39.80;;;;;;5022829;28;19913;-75
2023/03/28 09:04:46;;;;;;;;;;;23.80;40.00;;;;;;5013012;28;19966;-74
2023/03/28 09:07:22;;;;;;;;;;;23.70;40.10;;;;;;5015226;28;19910;-75
2023/03/28 09:09:57;;;;;;;;;;;23.70;40.30;;;;;;5024677;28;19913;-76
2023/03/28 09:12:33;;;;;;;;;;;23.60;40.40;;;;;;5012543;28;19917;-75
2023/03/28 09:14:59;;;;;;;;;;;23.50;40.50;;;;;;5020472;28;19923;-75
2023/03/28 09:17:46;;;;;;;;;;;23.50;40.60;;;;;;5017030;28;20067;-75
2023/03/28 09:20:27;;;;;;;;;;;23.50;40.60;;;;;;5014394;28;20374;-75
2023/03/28 09:23:11;;;;;;;;;;;23.50;40.60;;;;;;5011300;28;19913;-75
2023/03/28 09:25:45;;;;;;;;;;;23.50;40.30;;;;;;5016872;28;19982;-75
2023/03/28 09:28:11;;;;;;;;;;;23.50;40.00;;;;;;5008122;28;20370;-75
2023/03/28 09:30:38;;;;;;;;;;;23.60;40.00;;;;;;5020734;28;19929;-75
2023/03/28 09:33:04;;;;;;;;;;;23.80;39.70;;;;;;5002137;28;19922;-75
2023/03/28 09:35:30;;;;;;;;;;;23.90;39.30;;;;;;5018719;28;20000;-74
2023/03/28 09:37:57;;;;;;;;;;;24.10;39.20;;;;;;5015643;28;19932;-75
2023/03/28 09:40:24;;;;;;;;;;;24.20;38.90;;;;;;5012984;28;19913;-75
2023/03/28 09:42:52;;;;;;;;;;;24.30;38.80;;;;;;5003110;28;20537;-75
2023/03/28 09:45:36;;;;;;;;;;;24.40;38.80;;;;;;5018198;28;19917;-75
2023/03/28 09:48:03;;;;;;;;;;;24.50;38.70;;;;;;5025065;28;19965;-75
2023/03/28 09:50:28;;;;;;;;;;;24.50;38.50;;;;;;5010913;28;19914;-74
2023/03/28 09:52:54;;;;;;;;;;;24.40;38.60;;;;;;5015739;28;19918;-75
2023/03/28 09:55:21;;;;;;;;;;;24.40;38.70;;;;;;5004648;28;19928;-75
2023/03/28 09:58:05;;;;;;;;;;;24.40;38.80;;;;;;5007840;28;20000;-76
2023/03/28 10:00:35;;;;;;;;;;;24.50;38.70;;;;;;5020032;28;19913;-75
2023/03/28 10:03:00;;;;;;;;;;;24.50;38.70;;;;;;5028530;28;19960;-75
2023/03/28 10:05:42;;;;;;;;;;;24.60;38.70;;;;;;5014708;28;19948;-75
2023/03/28 10:08:18;;;;;;;;;;;24.50;38.50;;;;;;5005904;28;19956;-75
2023/03/28 10:10:43;;;;;;;;;;;24.40;38.80;;;;;;5013958;28;19929;-74
2023/03/28 10:13:10;;;;;;;;;;;24.30;39.10;;;;;;5011944;28;20013;-74
2023/03/28 10:15:40;;;;;;;;;;;24.20;39.30;;;;;;5015281;28;19969;-75
2023/03/28 10:18:06;;;;;;;;;;;24.20;39.30;;;;;;5004518;28;19909;-75
2023/03/28 10:20:32;;;;;;;;;;;24.10;39.30;;;;;;5006283;28;19914;-75
2023/03/28 10:22:58;;;;;;;;;;;24.20;39.50;;;;;;5015509;28;19913;-75
2023/03/28 10:25:37;;;;;;;;;;;24.10;39.50;;;;;;5009728;28;19929;-75
2023/03/28 10:28:04;;;;;;;;;;;24.20;39.30;;;;;;4993756;28;19921;-74
2023/03/28 10:30:29;;;;;;;;;;;24.30;39.10;;;;;;5010629;28;19920;-74
2023/03/28 10:33:14;;;;;;;;;;;24.40;39.00;;;;;;5001907;28;19925;-74
2023/03/28 10:35:42;;;;;;;;;;;24.50;38.70;;;;;;5017391;28;19921;-74
2023/03/28 10:38:12;;;;;;;;;;;24.60;38.60;;;;;;5008696;28;20054;-74
2023/03/28 10:40:37;;;;;;;;;;;24.60;38.40;;;;;;5003677;28;19931;-73
2023/03/28 10:43:09;;;;;;;;;;;24.70;38.30;;;;;;4997003;28;20401;-76
2023/03/28 10:45:44;;;;;;;;;;;24.70;38.30;;;;;;5010647;28;19921;-74
2023/03/28 10:48:11;;;;;;;;;;;24.70;38.40;;;;;;5014466;28;19965;-74
2023/03/28 10:50:39;;;;;;;;;;;24.70;38.40;;;;;;5012068;28;19913;-73
2023/03/28 10:53:09;;;;;;;;;;;24.80;38.50;;;;;;5006138;28;19931;-73
2023/03/28 10:55:41;;;;;;;;;;;24.90;38.40;;;;;;5006066;28;19913;-73
2023/03/28 10:58:13;;;;;;;;;;;25.00;38.20;;;;;;5023863;28;20454;-74
2023/03/28 11:00:40;;;;;;;;;;;25.10;38.20;;;;;;5018130;28;19913;-73
2023/03/28 11:03:09;;;;;;;;;;;25.10;38.10;;;;;;4996928;28;19917;-74
2023/03/28 11:05:52;;;;;;;;;;;25.10;38.00;;;;;;5018316;28;20283;-73
2023/03/28 11:08:18;;;;;;;;;;;25.10;38.10;;;;;;5006578;28;19920;-74
2023/03/28 11:10:43;;;;;;;;;;;25.00;38.30;;;;;;5015026;28;19924;-73
2023/03/28 11:13:29;;;;;;;;;;;25.00;38.40;;;;;;5014864;28;21333;-74
2023/03/28 11:16:04;;;;;;;;;;;25.00;38.50;;;;;;5005229;28;21536;-74
2023/03/28 11:18:35;;;;;;;;;;;24.90;38.50;;;;;;5006333;28;19913;-73
2023/03/28 11:21:09;;;;;;;;;;;24.90;38.60;;;;;;5009590;28;19987;-74
2023/03/28 11:23:37;;;;;;;;;;;24.80;38.80;;;;;;4996992;28;21215;-73
2023/03/28 11:26:09;;;;;;;;;;;24.90;38.60;;;;;;5009756;28;19913;-74
2023/03/28 11:28:42;;;;;;;;;;;24.90;38.30;;;;;;5019430;28;19928;-74
2023/03/28 11:31:10;;;;;;;;;;;25.00;38.30;;;;;;5012932;28;19909;-74
2023/03/28 11:33:45;;;;;;;;;;;25.10;38.10;;;;;;5027811;27;19920;-75
2023/03/28 11:36:18;;;;;;;;;;;25.10;37.90;;;;;;5015743;28;19971;-75
2023/03/28 11:38:46;;;;;;;;;;;25.10;37.80;;;;;;5007095;28;19929;-75
2023/03/28 11:41:12;;;;;;;;;;;25.10;37.90;;;;;;5018849;28;19913;-75
2023/03/28 11:43:52;;;;;;;;;;;25.10;38.10;;;;;;5002746;28;19917;-75
2023/03/28 11:46:19;;;;;;;;;;;25.20;37.80;;;;;;5010167;28;19909;-75
2023/03/28 11:48:45;;;;;;;;;;;25.20;37.90;;;;;;5022929;28;20015;-74
2023/03/28 11:51:12;;;;;;;;;;;25.20;37.90;;;;;;5027806;28;19960;-74
2023/03/28 11:53:56;;;;;;;;;;;25.30;38.00;;;;;;5003415;28;19920;-74
2023/03/28 11:56:27;;;;;;;;;;;25.30;37.80;;;;;;5020088;28;20343;-74
2023/03/28 11:58:55;;;;;;;;;;;25.30;37.80;;;;;;5021185;28;19928;-75
2023/03/28 12:01:20;;;;;;;;;;;25.40;37.80;;;;;;5012150;28;19922;-74
2023/03/28 12:04:03;;;;;;;;;;;25.30;37.80;;;;;;5000041;28;19948;-74
2023/03/28 12:06:34;;;;;;;;;;;25.20;37.70;;;;;;5003617;28;19921;-74
2023/03/28 12:09:04;;;;;;;;;;;25.20;37.70;;;;;;5009235;28;19921;-74
2023/03/28 12:11:35;;;;;;;;;;;25.20;37.80;;;;;;5019536;28;20394;-74
2023/03/28 12:14:20;;;;;;;;;;;25.20;37.90;;;;;;5087606;27;19971;-74
2023/03/28 12:16:46;;;;;;;;;;;25.20;37.70;;;;;;5008232;28;19921;-74
2023/03/28 12:19:12;;;;;;;;;;;25.40;37.80;;;;;;4996871;28;20428;-74
2023/03/28 12:21:46;;;;;;;;;;;25.40;37.80;;;;;;4996835;28;19917;-74
2023/03/28 12:24:13;;;;;;;;;;;25.40;37.50;;;;;;4999929;28;19949;-74
2023/03/28 12:26:57;;;;;;;;;;;25.40;37.60;;;;;;5007146;28;19922;-74
2023/03/28 12:29:41;;;;;;;;;;;25.40;37.40;;;;;;5005395;28;19917;-75
2023/03/28 12:32:25;;;;;;;;;;;25.40;37.40;;;;;;5011312;28;20426;-74
2023/03/28 12:34:51;;;;;;;;;;;25.40;37.50;;;;;;5017244;28;19918;-74
2023/03/28 12:37:31;;;;;;;;;;;25.40;37.60;;;;;;5012804;28;20362;-74
2023/03/28 12:40:12;;;;;;;;;;;25.30;37.70;;;;;;4996711;28;19913;-74
2023/03/28 12:42:40;;;;;;;;;;;25.20;37.70;;;;;;5013021;28;19959;-74
2023/03/28 12:45:08;;;;;;;;;;;25.20;37.70;;;;;;5005540;28;19918;-75
2023/03/28 12:47:37;;;;;;;;;;;25.30;37.80;;;;;;5002403;28;19961;-74
2023/03/28 12:50:06;;;;;;;;;;;25.30;37.70;;;;;;5006704;28;21714;-73
2023/03/28 12:52:36;;;;;;;;;;;25.40;37.70;;;;;;5004485;28;19913;-74
2023/03/28 12:55:02;;;;;;;;;;;25.40;37.80;;;;;;5006781;28;20009;-74
2023/03/28 12:57:39;;;;;;;;;;;25.20;37.70;;;;;;5007595;28;20319;-75
2023/03/28 13:00:11;;;;;;;;;;;25.10;38.20;;;;;;5020680;28;19913;-75
2023/03/28 13:02:43;;;;;;;;;;;25.10;38.00;;;;;;5015019;28;19925;-74
2023/03/28 13:05:27;;;;;;;;;;;25.20;37.70;;;;;;4997011;28;19917;-75
2023/03/28 13:07:59;;;;;;;;;;;25.40;37.80;;;;;;5005349;28;19946;-75
2023/03/28 13:10:32;;;;;;;;;;;25.60;37.80;;;;;;5012756;28;19917;-75
2023/03/28 13:13:05;;;;;;;;;;;25.60;37.50;;;;;;5012589;28;19924;-74
2023/03/28 13:15:31;;;;;;;;;;;25.70;37.40;;;;;;5022820;28;19921;-74
2023/03/28 13:18:15;;;;;;;;;;;25.80;37.40;;;;;;5008209;28;19914;-74
2023/03/28 13:20:47;;;;;;;;;;;25.80;37.50;;;;;;5010236;28;19913;-74
2023/03/28 13:23:13;;;;;;;;;;;25.90;37.40;;;;;;5019649;28;20309;-74
2023/03/28 13:25:38;;;;;;;;;;;25.90;37.30;;;;;;5035105;28;19921;-74
2023/03/28 13:28:10;;;;;;;;;;;25.90;37.20;;;;;;5002818;28;19961;-74
2023/03/28 13:30:35;;;;;;;;;;;26.00;37.40;;;;;;5013966;28;19918;-74
2023/03/28 13:33:05;;;;;;;;;;;25.90;37.10;;;;;;5008788;28;20021;-75
2023/03/28 13:35:33;;;;;;;;;;;26.00;37.20;;;;;;5022016;28;20263;-74
2023/03/28 13:38:12;;;;;;;;;;;25.90;37.30;;;;;;5027364;28;19920;-74
2023/03/28 13:40:39;;;;;;;;;;;25.90;37.00;;;;;;5000028;28;19913;-74
2023/03/28 13:43:14;;;;;;;;;;;25.90;37.10;;;;;;4996430;28;19913;-76
2023/03/28 13:45:39;;;;;;;;;;;26.00;37.00;;;;;;5007669;28;19921;-76
2023/03/28 13:48:06;;;;;;;;;;;26.00;37.00;;;;;;5007550;28;20405;-75
2023/03/28 13:50:31;;;;;;;;;;;26.10;37.00;;;;;;5006278;28;19959;-74
2023/03/28 13:52:58;;;;;;;;;;;26.10;36.80;;;;;;5005339;28;19917;-75
2023/03/28 13:55:24;;;;;;;;;;;26.10;36.90;;;;;;5012144;28;19917;-74
2023/03/28 13:57:49;;;;;;;;;;;26.20;36.90;;;;;;5012282;28;20010;-75
2023/03/28 14:00:15;;;;;;;;;;;26.20;36.80;;;;;;4998102;28;19921;-74
2023/03/28 14:02:42;;;;;;;;;;;26.20;37.00;;;;;;5011087;28;19956;-76
2023/03/28 14:05:10;;;;;;;;;;;26.20;36.80;;;;;;5015716;28;19917;-74
2023/03/28 14:07:36;;;;;;;;;;;26.20;36.70;;;;;;5014112;28;19921;-74
2023/03/28 14:10:01;;;;;;;;;;;26.30;36.60;;;;;;5008385;28;19957;-74
2023/03/28 14:12:27;;;;;;;;;;;26.30;36.60;;;;;;4994202;28;20379;-75
2023/03/28 14:14:53;;;;;;;;;;;26.40;36.50;;;;;;5007245;28;19914;-76
2023/03/28 14:17:21;;;;;;;;;;;26.40;36.30;;;;;;5008311;28;19992;-74
2023/03/28 14:19:52;;;;;;;;;;;26.40;36.50;;;;;;4997688;28;20414;-74
2023/03/28 14:22:19;;;;;;;;;;;26.30;36.60;;;;;;5008341;28;19917;-77
2023/03/28 14:24:46;;;;;;;;;;;26.30;36.70;;;;;;4993309;28;19921;-74
2023/03/28 14:27:14;;;;;;;;;;;26.10;36.80;;;;;;5007933;28;20039;-76